Accueil
METAR-TAF:

METAR-TAF

Aéroports :

Aéroport international de Norwich

Norwich, Angleterre

latitude: 52-38N, longitude: 001-18E, altitude: 14 m

Observation

Le bulletin a été fait il y a 30 minutes, à 13:20 UTC
Vent 6 kt de sud, variant entre est/sud-est et sud-ouest
Température 20°C
Humidité 78%
Pression 1022 hPa
Visibilité 10 km ou plus
Nuages épars à une hauteur de 2700 ft
Nuages fragmentés à une hauteur de 3800 ft

METAR: EGSH 191320Z 17006KT 120V220 9999 SCT027 BKN038 20/16 Q1022 NOSIG

Heure: 14:50 (13:50 UTC)

Prévision

Le bulletin a été fait il y a 2 heures et 49 minutes, à 11:01 UTC
Prévision valable du 19 à 12 UTC au 19 à 21 UTC
Vent 5 kt de ouest/sud-ouest
Visibilité 10 km ou plus
Nuages épars à une hauteur de 2000 ft

TAF: EGSH 191101Z 1912/1921 25005KT 9999 SCT020

Observations et prévisions météorologiques de plus de 4000 aéroports (messages METAR et TAF).

Les stations disponibles sont représentées par des disques jaunes et rouges sur la carte.

Passer la souris dessus pour voir le nom de la station.

Cliquer dessus pour voir les observations et prévisions météorologiques.

Pour changer de carte: cliquez sur les boutons verts avec une croix noire pour zoomer, sur le bouton vert avec un tiret pour effectuer un zoom arrière, ou sur les flèches vertes pour les cartes adjacentes.


METAR-TAF: